createdAt,value
2018-01-11T00:00:10.649Z,37.22
2018-01-11T00:02:38.066Z,38.83
2018-01-11T00:05:06.257Z,39.45
2018-01-11T00:07:34.538Z,39.28
2018-01-11T00:10:02.743Z,35.45
2018-01-11T00:12:30.912Z,38.28
2018-01-11T00:14:59.098Z,37.97
2018-01-11T00:17:27.283Z,39.42
2018-01-11T00:19:55.465Z,38.33
2018-01-11T00:22:22.880Z,42.97
2018-01-11T00:24:50.294Z,39.70
2018-01-11T00:27:17.721Z,46.90
2018-01-11T00:29:45.143Z,41.00
2018-01-11T00:32:13.321Z,50.88
2018-01-11T00:34:41.493Z,59.42
2018-01-11T00:37:08.920Z,50.47
2018-01-11T00:39:36.331Z,50.72
2018-01-11T00:42:04.570Z,56.45
2018-01-11T00:44:31.978Z,52.00
2018-01-11T00:46:59.393Z,43.08
2018-01-11T00:49:26.817Z,48.17
2018-01-11T00:51:54.238Z,50.25
2018-01-11T00:54:21.657Z,45.70
2018-01-11T00:56:49.083Z,46.53
2018-01-11T00:59:16.490Z,53.42
2018-01-11T01:01:43.917Z,47.42
2018-01-11T01:04:11.331Z,45.50
2018-01-11T01:06:38.741Z,43.80
2018-01-11T01:09:06.219Z,49.78
2018-01-11T01:11:33.786Z,40.03
2018-01-11T01:14:01.244Z,44.78
2018-01-11T01:16:29.402Z,43.22
2018-01-11T01:18:57.586Z,41.83
2018-01-11T01:21:25.090Z,44.05
2018-01-11T01:23:52.510Z,45.38
2018-01-11T01:26:21.438Z,49.83
2018-01-11T01:28:49.646Z,44.72
2018-01-11T01:31:17.974Z,47.55
2018-01-11T01:33:45.390Z,42.05
2018-01-11T01:36:12.902Z,45.12
2018-01-11T01:38:40.360Z,50.15
2018-01-11T01:41:07.770Z,51.17
2018-01-11T01:43:35.295Z,47.95
2018-01-11T01:46:02.754Z,52.38
2018-01-11T01:48:42.164Z,51.55
2018-01-11T01:51:09.578Z,49.38
2018-01-11T01:53:37.042Z,50.83
2018-01-11T01:56:04.461Z,41.85
2018-01-11T01:58:32.695Z,49.13
2018-01-11T02:01:00.129Z,42.40
2018-01-11T02:03:27.534Z,49.75
2018-01-11T03:23:00.675Z,40.95
2018-01-11T03:25:28.099Z,37.80
2018-01-11T03:27:55.502Z,46.53
2018-01-11T03:30:22.920Z,46.05
2018-01-11T03:32:50.353Z,41.35
2018-01-11T03:35:17.771Z,42.42
2018-01-11T03:37:46.177Z,41.83
2018-01-11T03:40:13.590Z,45.67
2018-01-11T03:42:41.776Z,46.67
2018-01-11T03:45:09.953Z,49.45
2018-01-11T03:47:38.165Z,46.25
2018-01-11T03:50:05.580Z,50.20
2018-01-11T03:52:33.017Z,54.42
2018-01-11T03:55:00.435Z,41.47
2018-01-11T03:57:27.849Z,43.40
2018-01-11T03:59:55.271Z,43.10
2018-01-11T04:02:22.677Z,53.83
2018-01-11T04:04:50.089Z,45.72
2018-01-11T04:07:17.543Z,43.60
2018-01-11T04:09:44.986Z,40.88
2018-01-11T04:12:12.402Z,40.92
2018-01-11T04:14:39.813Z,41.15
2018-01-11T04:17:07.221Z,41.53
2018-01-11T04:19:35.486Z,38.75
2018-01-11T04:22:02.883Z,42.88
2018-01-11T04:24:30.314Z,39.45
2018-01-11T04:26:57.737Z,39.42
2018-01-11T04:29:25.157Z,41.00
2018-01-11T04:31:52.565Z,37.17
2018-01-11T04:34:19.982Z,37.55
2018-01-11T04:36:47.393Z,36.35
2018-01-11T04:39:14.814Z,42.13
2018-01-11T04:41:42.233Z,36.88
2018-01-11T04:44:09.654Z,38.65
2018-01-11T04:46:37.067Z,43.38
2018-01-11T04:49:04.607Z,39.00
2018-01-11T04:51:32.018Z,38.25
2018-01-11T04:53:59.435Z,40.97
2018-01-11T04:56:26.841Z,37.53
2018-01-11T04:58:54.358Z,44.85
2018-01-11T05:01:21.773Z,43.97
2018-01-11T05:03:49.183Z,48.92
2018-01-11T05:06:17.371Z,47.80
2018-01-11T05:08:44.792Z,42.08
2018-01-11T05:11:12.201Z,42.13
2018-01-11T05:13:40.401Z,46.37
2018-01-11T05:16:07.812Z,48.92
2018-01-11T05:18:35.222Z,45.90
2018-01-11T05:21:03.430Z,46.60
2018-01-11T05:23:30.846Z,53.97
2018-01-11T05:25:58.270Z,51.42
2018-01-11T05:28:25.695Z,48.30
2018-01-11T05:30:53.109Z,48.55
2018-01-11T05:33:20.521Z,51.20
2018-01-11T05:35:47.963Z,49.33
2018-01-11T05:38:15.409Z,50.60
2018-01-11T05:40:43.569Z,50.72
2018-01-11T05:43:10.981Z,47.50
2018-01-11T05:45:38.397Z,47.92
2018-01-11T05:48:06.584Z,42.40
2018-01-11T05:50:34.776Z,54.65
2018-01-11T05:53:02.985Z,40.53
2018-01-11T05:55:30.450Z,50.67
2018-01-11T05:57:57.901Z,45.30
2018-01-11T06:00:26.105Z,51.17
2018-01-11T06:02:53.538Z,45.40
2018-01-11T06:05:21.050Z,44.30
2018-01-11T06:07:48.520Z,42.38
2018-01-11T06:10:16.083Z,42.45
2018-01-11T06:12:43.566Z,46.75
2018-01-11T06:15:11.002Z,50.90
2018-01-11T06:17:39.195Z,48.65
2018-01-11T06:20:07.394Z,38.97
2018-01-11T06:22:34.874Z,44.60
2018-01-11T06:25:02.342Z,41.63
2018-01-11T06:27:29.730Z,38.38
2018-01-11T06:29:57.153Z,46.37
2018-01-11T06:32:25.340Z,44.08
2018-01-11T06:34:53.598Z,44.83
2018-01-11T06:37:21.005Z,50.42
2018-01-11T06:39:48.486Z,47.20
2018-01-11T06:42:15.940Z,46.55
2018-01-11T06:44:43.353Z,45.38
2018-01-11T06:47:10.787Z,41.83
2018-01-11T06:49:38.189Z,38.42
2018-01-11T06:52:05.632Z,40.75
2018-01-11T06:54:33.061Z,42.50
2018-01-11T06:57:01.254Z,55.12
2018-01-11T06:59:29.429Z,44.88
2018-01-11T07:01:57.609Z,43.47
2018-01-11T07:04:25.794Z,38.97
2018-01-11T07:06:54.010Z,40.47
2018-01-11T07:09:21.431Z,41.10
2018-01-11T07:11:48.851Z,44.97
2018-01-11T07:14:16.290Z,48.50
2018-01-11T07:16:44.466Z,40.00
2018-01-11T07:19:11.923Z,40.53
2018-01-11T07:21:39.457Z,45.85
2018-01-11T07:24:06.846Z,45.58
2018-01-11T07:26:34.277Z,41.53
2018-01-11T07:29:01.700Z,42.85
2018-01-11T07:31:29.122Z,48.38
2018-01-11T07:33:56.564Z,52.97
2018-01-11T07:36:24.771Z,39.10
2018-01-11T07:38:52.185Z,49.10
2018-01-11T07:41:19.601Z,39.65
2018-01-11T07:43:47.026Z,40.88
2018-01-11T07:46:14.455Z,50.67
2018-01-11T07:48:41.872Z,43.50
2018-01-11T07:51:09.290Z,53.17
2018-01-11T07:53:36.753Z,46.35
2018-01-11T07:56:04.938Z,47.28
2018-01-11T07:58:32.359Z,42.85
2018-01-11T08:00:59.806Z,47.78
2018-01-11T08:03:27.254Z,39.22
2018-01-11T08:05:54.678Z,49.40
2018-01-11T08:08:22.904Z,45.10
2018-01-11T08:10:50.315Z,44.35
2018-01-11T08:13:17.737Z,43.53
2018-01-11T08:15:45.215Z,44.72
2018-01-11T08:18:12.810Z,50.12
2018-01-11T08:20:40.349Z,45.90
2018-01-11T08:23:08.529Z,44.75
2018-01-11T08:25:35.949Z,53.05
2018-01-11T08:28:03.374Z,60.97
2018-01-11T08:30:30.945Z,41.88
2018-01-11T08:32:59.175Z,50.00
2018-01-11T08:35:26.622Z,54.20
2018-01-11T08:37:54.073Z,44.95
2018-01-11T08:40:21.498Z,47.50
2018-01-11T08:42:49.677Z,56.25
2018-01-11T08:45:17.869Z,56.58
2018-01-11T08:47:46.092Z,49.97
2018-01-11T08:50:13.521Z,48.03
2018-01-11T08:52:41.728Z,55.45
2018-01-11T08:55:09.149Z,45.65
2018-01-11T08:57:36.578Z,46.58
2018-01-11T09:00:04.010Z,52.00
2018-01-11T09:02:31.525Z,46.05
2018-01-11T09:04:58.982Z,53.63
2018-01-11T09:07:26.402Z,51.35
2018-01-11T09:09:53.818Z,47.60
2018-01-11T09:12:21.244Z,46.28
2018-01-11T09:14:48.701Z,50.53
2018-01-11T09:17:16.135Z,47.60
2018-01-11T09:19:43.602Z,44.35
2018-01-11T09:22:11.008Z,44.50
2018-01-11T09:24:38.442Z,54.05
2018-01-11T09:27:05.876Z,48.33
2018-01-11T09:29:33.273Z,51.85
2018-01-11T09:32:00.696Z,49.58
2018-01-11T09:34:28.214Z,53.38
2018-01-11T09:36:55.629Z,45.95
2018-01-11T09:39:23.067Z,38.63
2018-01-11T09:41:50.518Z,40.45
2018-01-11T09:44:17.929Z,50.08
2018-01-11T09:46:46.144Z,39.40
2018-01-11T09:49:13.613Z,58.15
2018-01-11T09:51:41.787Z,46.72
2018-01-11T09:54:09.979Z,74.00
2018-01-11T09:56:38.378Z,57.75
2018-01-11T09:59:06.585Z,46.45
2018-01-11T10:01:34.002Z,77.47
2018-01-11T10:04:01.438Z,44.97
2018-01-11T10:06:28.886Z,44.35
2018-01-11T10:08:56.361Z,46.58
2018-01-11T10:11:23.790Z,47.42
2018-01-11T10:13:51.973Z,51.13
2018-01-11T10:16:20.206Z,45.85
2018-01-11T10:18:47.652Z,52.25
2018-01-11T10:21:15.139Z,54.05
2018-01-11T10:23:42.635Z,44.67
2018-01-11T10:26:10.082Z,46.37
2018-01-11T10:28:37.497Z,54.28
2018-01-11T10:31:04.905Z,45.90
2018-01-11T10:33:32.378Z,50.22
2018-01-11T10:35:59.802Z,50.72
2018-01-11T10:38:27.225Z,63.22
2018-01-11T10:40:54.675Z,48.33
2018-01-11T10:43:22.094Z,45.17
2018-01-11T10:45:49.542Z,49.97
2018-01-11T10:48:16.962Z,52.00
2018-01-11T10:50:45.177Z,55.12
2018-01-11T10:53:12.603Z,52.85
2018-01-11T10:55:40.069Z,50.95
2018-01-11T10:58:08.257Z,67.85
2018-01-11T11:00:42.361Z,45.28
2018-01-11T11:03:09.898Z,52.90
2018-01-11T11:05:37.318Z,54.33
2018-01-11T11:08:04.877Z,45.13
2018-01-11T11:10:32.261Z,53.63
2018-01-11T11:13:00.449Z,58.53
2018-01-11T11:15:28.642Z,52.73
2018-01-11T11:17:56.832Z,53.42
2018-01-11T11:20:25.027Z,59.63
2018-01-11T11:22:52.464Z,55.45
2018-01-11T11:25:19.894Z,53.38
2018-01-11T11:27:47.293Z,48.97
2018-01-11T11:30:14.732Z,43.00
2018-01-11T11:32:42.169Z,46.72
2018-01-11T11:35:09.596Z,42.13
2018-01-11T11:37:37.025Z,44.03
2018-01-11T11:40:04.450Z,42.10
2018-01-11T11:42:31.862Z,47.47
2018-01-11T11:44:59.317Z,45.97
2018-01-11T11:47:26.735Z,49.40
2018-01-11T11:49:54.140Z,61.40
2018-01-11T11:52:22.330Z,49.07
2018-01-11T11:54:49.742Z,52.07
2018-01-11T11:57:17.170Z,47.43
2018-01-11T11:59:44.593Z,43.47
2018-01-11T12:02:12.783Z,48.03
2018-01-11T12:04:41.020Z,56.33
2018-01-11T12:07:09.197Z,47.17
2018-01-11T12:09:36.625Z,46.87
2018-01-11T12:12:04.048Z,54.10
2018-01-11T12:14:31.474Z,44.70
2018-01-11T12:16:58.998Z,47.87
2018-01-11T12:19:26.423Z,44.43
2018-01-11T12:21:54.734Z,51.00
2018-01-11T12:24:22.153Z,47.90
2018-01-11T12:26:49.669Z,47.90
2018-01-11T12:29:17.102Z,47.93
2018-01-11T12:31:44.502Z,39.30
2018-01-11T12:34:11.926Z,44.80
2018-01-11T12:36:39.442Z,50.17
2018-01-11T12:39:06.910Z,41.40
2018-01-11T12:41:34.433Z,39.63
2018-01-11T12:44:01.849Z,46.23
2018-01-11T12:46:29.262Z,43.70
2018-01-11T12:48:56.681Z,47.90
2018-01-11T12:51:24.094Z,51.20
2018-01-11T12:53:51.519Z,52.23
2018-01-11T12:56:18.990Z,46.90
2018-01-11T12:58:46.402Z,48.33
2018-01-11T13:01:13.827Z,59.53
2018-01-11T13:03:41.249Z,44.37
2018-01-11T13:06:08.684Z,55.47
2018-01-11T13:08:36.078Z,53.73
2018-01-11T13:11:03.533Z,49.57
2018-01-11T13:13:30.919Z,47.70
2018-01-11T13:15:58.346Z,44.30
2018-01-11T13:18:25.759Z,50.27
2018-01-11T13:20:53.176Z,54.67
2018-01-11T13:23:20.639Z,54.77
2018-01-11T13:25:48.060Z,44.90
2018-01-11T13:28:15.496Z,45.50
2018-01-11T13:30:42.898Z,43.63
2018-01-11T13:33:10.309Z,44.23
2018-01-11T13:35:37.730Z,45.87
2018-01-11T13:38:05.155Z,40.10
2018-01-11T13:40:32.549Z,47.90
2018-01-11T13:42:59.971Z,40.60
2018-01-11T13:45:28.153Z,38.87
2018-01-11T13:47:55.569Z,46.53
2018-01-11T13:50:23.001Z,43.97
2018-01-11T13:52:50.430Z,47.10
2018-01-11T13:55:17.840Z,50.60
2018-01-11T13:57:45.270Z,48.83
2018-01-11T14:00:13.456Z,50.17
2018-01-11T14:02:41.094Z,51.60
2018-01-11T14:05:08.527Z,58.53
2018-01-11T14:07:35.949Z,40.97
2018-01-11T14:10:03.367Z,45.83
2018-01-11T14:12:30.770Z,43.27
2018-01-11T14:14:58.201Z,42.00
2018-01-11T14:17:25.629Z,48.33
2018-01-11T14:19:53.114Z,44.40
2018-01-11T14:22:20.474Z,42.93
2018-01-11T14:24:48.689Z,48.77
2018-01-11T14:27:16.862Z,45.83
2018-01-11T14:29:45.072Z,46.27
2018-01-11T14:32:12.561Z,42.30
2018-01-11T14:34:40.031Z,46.50
2018-01-11T14:37:07.449Z,51.03
2018-01-11T14:39:35.633Z,45.23
2018-01-11T14:42:03.845Z,40.97
2018-01-11T14:44:31.253Z,46.67
2018-01-11T14:46:58.660Z,40.33
2018-01-11T14:49:26.854Z,39.57
2018-01-11T14:51:55.030Z,51.80
2018-01-11T14:54:23.214Z,37.53
2018-01-11T14:56:51.437Z,40.37
2018-01-11T14:59:18.898Z,42.30
2018-01-11T15:01:46.378Z,37.73
2018-01-11T15:04:14.529Z,38.40
2018-01-11T15:06:42.792Z,42.23
2018-01-11T15:09:10.977Z,41.20
2018-01-11T15:11:38.429Z,42.50
2018-01-11T15:14:05.965Z,44.63
2018-01-11T15:16:34.137Z,44.83
2018-01-11T15:19:01.655Z,41.30
2018-01-11T15:21:29.090Z,44.70
2018-01-11T15:23:56.506Z,48.50
2018-01-11T15:26:24.031Z,48.30
2018-01-11T15:28:51.441Z,47.73
2018-01-11T15:31:18.862Z,51.60
2018-01-11T15:33:46.333Z,51.43
2018-01-11T15:36:14.317Z,51.20
2018-01-11T15:38:42.525Z,48.93
2018-01-11T15:41:09.931Z,49.73
2018-01-11T15:43:37.425Z,47.10
2018-01-11T15:46:04.845Z,53.63
2018-01-11T15:48:32.249Z,50.60
2018-01-11T15:51:00.454Z,47.53
2018-01-11T15:53:27.931Z,50.17
2018-01-11T15:55:56.095Z,55.93
2018-01-11T15:58:24.277Z,49.43
2018-01-11T16:00:52.497Z,55.60
2018-01-11T16:03:19.969Z,51.43
2018-01-11T16:05:48.150Z,51.33
2018-01-11T16:08:15.551Z,56.13
2018-01-11T16:10:42.983Z,56.57
2018-01-11T16:13:10.426Z,61.77
2018-01-11T16:15:37.842Z,48.10
2018-01-11T16:18:05.286Z,51.77
2018-01-11T16:20:32.750Z,52.47
2018-01-11T16:23:00.249Z,53.60
2018-01-11T16:25:28.491Z,53.33
2018-01-11T16:27:56.689Z,54.10
2018-01-11T16:30:24.105Z,48.20
2018-01-11T16:32:51.520Z,60.37
2018-01-11T16:35:19.724Z,49.43
2018-01-11T16:37:47.227Z,53.03
2018-01-11T16:40:14.967Z,59.90
2018-01-11T16:42:42.374Z,55.03
2018-01-11T16:45:09.785Z,60.07
2018-01-11T16:47:37.256Z,58.90
2018-01-11T16:50:04.676Z,54.37
2018-01-11T16:52:32.084Z,55.77
2018-01-11T16:55:00.271Z,56.73
2018-01-11T16:57:28.462Z,68.57
2018-01-11T16:59:55.918Z,55.90
2018-01-11T17:02:24.114Z,59.27
2018-01-11T17:04:51.546Z,61.40
2018-01-11T17:07:19.074Z,57.33
2018-01-11T17:09:46.494Z,62.40
2018-01-11T17:12:13.918Z,61.23
2018-01-11T17:14:41.579Z,57.20
2018-01-11T17:17:08.977Z,62.17
2018-01-11T17:19:36.405Z,67.00
2018-01-11T17:22:03.875Z,63.78
2018-01-11T17:24:31.295Z,65.90
2018-01-11T17:26:58.713Z,84.17
2018-01-11T17:29:26.134Z,58.90
2018-01-11T17:31:53.649Z,61.17
2018-01-11T17:34:21.128Z,64.33
2018-01-11T17:36:48.582Z,77.70
2018-01-11T17:39:15.996Z,64.47
2018-01-11T17:41:43.433Z,57.43
2018-01-11T17:44:10.917Z,63.30
2018-01-11T17:46:38.323Z,61.23
2018-01-11T17:49:05.821Z,58.53
2018-01-11T17:51:33.316Z,67.30
2018-01-11T17:54:00.769Z,56.63
2018-01-11T17:56:28.192Z,58.37
2018-01-11T17:58:55.713Z,63.87
2018-01-11T18:01:23.894Z,63.20
2018-01-11T18:03:51.317Z,65.07
2018-01-11T18:06:18.834Z,65.37
2018-01-11T18:08:47.147Z,65.47
2018-01-11T18:11:14.616Z,67.00
2018-01-11T18:13:42.055Z,63.60
2018-01-11T18:16:10.221Z,65.87
2018-01-11T18:18:38.401Z,72.83
2018-01-11T18:21:06.622Z,67.90
2018-01-11T18:23:34.033Z,62.50
2018-01-11T18:26:01.662Z,62.33
2018-01-11T18:28:29.049Z,58.28
2018-01-11T18:30:56.474Z,61.20
2018-01-11T18:33:23.893Z,64.57
2018-01-11T18:35:51.317Z,67.30
2018-01-11T18:38:18.736Z,63.42
2018-01-11T18:40:46.266Z,63.03
2018-01-11T18:43:13.685Z,61.90
2018-01-11T18:45:41.161Z,71.93
2018-01-11T18:48:08.618Z,62.50
2018-01-11T18:50:36.033Z,71.17
2018-01-11T18:53:03.476Z,67.30
2018-01-11T18:55:31.776Z,63.80
2018-01-11T18:57:59.979Z,64.73
2018-01-11T19:00:27.393Z,60.90
2018-01-11T19:02:54.806Z,58.93
2018-01-11T19:05:22.286Z,69.30
2018-01-11T19:07:49.778Z,62.50
2018-01-11T19:10:17.193Z,63.53
2018-01-11T19:12:44.704Z,72.37
2018-01-11T19:15:12.119Z,69.27
2018-01-11T19:17:39.556Z,63.60
2018-01-11T19:20:07.007Z,59.50
2018-01-11T19:22:34.431Z,58.80
2018-01-11T19:25:01.842Z,58.93
2018-01-11T19:27:29.262Z,64.10
2018-01-11T19:29:56.786Z,63.17
2018-01-11T19:32:24.214Z,64.78
2018-01-11T19:34:52.480Z,67.90
2018-01-11T19:37:19.930Z,61.00
2018-01-11T19:39:47.315Z,62.73
2018-01-11T19:42:14.764Z,62.23
2018-01-11T19:44:42.195Z,67.60
2018-01-11T19:47:10.394Z,64.50
2018-01-11T19:49:37.811Z,62.50
2018-01-11T19:52:05.389Z,60.03
2018-01-11T19:54:32.854Z,70.47
2018-01-11T19:57:00.278Z,67.80
2018-01-11T19:59:27.697Z,64.90
2018-01-11T20:01:55.123Z,65.20
2018-01-11T20:04:22.554Z,66.03
2018-01-11T20:06:49.978Z,64.37
2018-01-11T20:09:17.394Z,64.13
2018-01-11T20:11:44.831Z,62.22
2018-01-11T20:14:13.022Z,65.85
2018-01-11T20:16:41.205Z,62.85
2018-01-11T20:19:09.400Z,68.03
2018-01-11T20:21:37.622Z,63.50
2018-01-11T20:24:05.047Z,69.97
2018-01-11T20:26:33.230Z,62.20
2018-01-11T20:29:00.635Z,61.33
2018-01-11T20:31:28.105Z,65.27
2018-01-11T20:33:55.534Z,70.83
2018-01-11T20:36:23.008Z,64.17
2018-01-11T20:38:51.231Z,64.85
2018-01-11T20:41:18.806Z,62.23
2018-01-11T20:43:47.002Z,82.22
2018-01-11T20:46:14.469Z,61.08
2018-01-11T20:48:41.884Z,61.90
2018-01-11T20:51:10.107Z,75.90
2018-01-11T20:53:37.532Z,63.92
2018-01-11T20:56:04.966Z,64.62
2018-01-11T20:58:32.405Z,64.40
2018-01-11T21:00:59.889Z,63.95
2018-01-11T21:03:27.383Z,61.58
2018-01-11T21:05:54.827Z,66.22
2018-01-11T21:08:22.278Z,61.03
2018-01-11T21:10:49.750Z,59.08
2018-01-11T21:13:17.228Z,59.30
2018-01-11T21:15:44.714Z,61.67
2018-01-11T21:18:12.152Z,65.82
2018-01-11T21:20:39.583Z,67.53
2018-01-11T21:23:07.014Z,58.85
2018-01-11T21:25:34.429Z,58.97
2018-01-11T21:28:01.958Z,58.27
2018-01-11T21:30:29.383Z,60.33
2018-01-11T21:32:57.582Z,60.35
2018-01-11T21:35:25.074Z,58.35
2018-01-11T21:37:52.502Z,58.87
2018-01-11T21:40:20.737Z,50.00
2018-01-11T21:42:48.169Z,55.72
2018-01-11T21:45:16.370Z,59.53
2018-01-11T21:47:43.810Z,54.28
2018-01-11T21:50:11.997Z,54.00
2018-01-11T21:52:40.186Z,59.45
2018-01-11T21:55:08.407Z,51.40
2018-01-11T21:57:35.887Z,52.50
2018-01-11T22:00:03.358Z,54.38
2018-01-11T22:02:30.783Z,53.87
2018-01-11T22:04:58.208Z,54.08
2018-01-11T22:07:25.632Z,52.95
2018-01-11T22:09:53.071Z,57.62
2018-01-11T22:12:20.530Z,55.60
2018-01-11T22:14:48.058Z,56.45
2018-01-11T22:17:15.520Z,56.55
2018-01-11T22:19:42.953Z,56.90
2018-01-11T22:22:11.147Z,59.60
2018-01-11T22:24:39.364Z,71.53
2018-01-11T22:27:06.803Z,60.83
2018-01-11T22:29:34.998Z,64.35
2018-01-11T22:32:02.463Z,56.17
2018-01-11T22:34:30.646Z,57.85
2018-01-11T22:36:58.858Z,60.08
2018-01-11T22:39:26.274Z,59.30
2018-01-11T22:41:53.802Z,61.73
2018-01-11T22:44:21.246Z,63.13
2018-01-11T22:46:48.668Z,68.70
2018-01-11T22:49:16.106Z,55.67
2018-01-11T22:51:43.581Z,57.87
2018-01-11T22:54:11.010Z,55.73
2018-01-11T22:56:39.217Z,61.70
2018-01-11T22:59:06.646Z,55.47
2018-01-11T23:01:34.092Z,60.90
2018-01-11T23:04:01.487Z,62.58
2018-01-11T23:06:28.902Z,55.93
2018-01-11T23:08:58.661Z,54.07
2018-01-11T23:11:31.686Z,50.03
2018-01-11T23:13:59.924Z,53.87
2018-01-11T23:16:27.342Z,59.57
2018-01-11T23:18:55.535Z,60.37
2018-01-11T23:21:23.718Z,56.43
2018-01-11T23:23:51.937Z,59.17
2018-01-11T23:26:19.350Z,54.97
2018-01-11T23:28:46.773Z,63.03
2018-01-11T23:31:14.245Z,59.00
2018-01-11T23:33:41.668Z,52.80
2018-01-11T23:36:09.089Z,61.20
2018-01-11T23:38:36.538Z,60.13
2018-01-11T23:41:03.952Z,68.33
2018-01-11T23:43:31.384Z,63.37
2018-01-11T23:45:58.797Z,61.60
2018-01-11T23:48:26.314Z,64.77
2018-01-11T23:50:53.786Z,67.80
2018-01-11T23:53:21.266Z,70.80
2018-01-11T23:55:48.697Z,76.43
2018-01-11T23:58:16.126Z,70.43
